sensor_id;sensor_type;location;lat;lon;timestamp;P1;durP1;ratioP1;P2;durP2;ratioP2
4051;SDS011;2040;50.924;11.604;2022-08-06T00:02:11;2.90;;;2.03;;
4051;SDS011;2040;50.924;11.604;2022-08-06T00:04:36;5.20;;;2.97;;
4051;SDS011;2040;50.924;11.604;2022-08-06T00:07:02;2.47;;;2.00;;
4051;SDS011;2040;50.924;11.604;2022-08-06T00:09:28;4.93;;;2.60;;
4051;SDS011;2040;50.924;11.604;2022-08-06T00:11:57;2.87;;;2.63;;
4051;SDS011;2040;50.924;11.604;2022-08-06T00:14:24;2.70;;;2.40;;
4051;SDS011;2040;50.924;11.604;2022-08-06T00:16:50;5.10;;;2.60;;
4051;SDS011;2040;50.924;11.604;2022-08-06T00:19:16;4.30;;;2.00;;
4051;SDS011;2040;50.924;11.604;2022-08-06T00:21:41;4.73;;;2.30;;
4051;SDS011;2040;50.924;11.604;2022-08-06T00:24:07;2.33;;;1.87;;
4051;SDS011;2040;50.924;11.604;2022-08-06T00:26:33;3.20;;;2.20;;
4051;SDS011;2040;50.924;11.604;2022-08-06T00:28:58;4.77;;;2.27;;
4051;SDS011;2040;50.924;11.604;2022-08-06T00:31:24;2.63;;;2.17;;
4051;SDS011;2040;50.924;11.604;2022-08-06T00:33:49;5.90;;;2.13;;
4051;SDS011;2040;50.924;11.604;2022-08-06T00:36:15;6.40;;;2.13;;
4051;SDS011;2040;50.924;11.604;2022-08-06T00:38:40;5.77;;;2.07;;
4051;SDS011;2040;50.924;11.604;2022-08-06T00:41:06;3.63;;;1.80;;
4051;SDS011;2040;50.924;11.604;2022-08-06T00:43:32;4.07;;;1.70;;
4051;SDS011;2040;50.924;11.604;2022-08-06T00:45:57;3.30;;;1.97;;
4051;SDS011;2040;50.924;11.604;2022-08-06T00:48:23;3.30;;;2.17;;
4051;SDS011;2040;50.924;11.604;2022-08-06T00:50:48;14.77;;;2.70;;
4051;SDS011;2040;50.924;11.604;2022-08-06T00:53:14;10.40;;;2.50;;
4051;SDS011;2040;50.924;11.604;2022-08-06T00:56:05;4.17;;;2.00;;
4051;SDS011;2040;50.924;11.604;2022-08-06T00:58:31;2.70;;;2.20;;
4051;SDS011;2040;50.924;11.604;2022-08-06T01:00:57;2.67;;;1.90;;
4051;SDS011;2040;50.924;11.604;2022-08-06T01:03:23;4.67;;;2.57;;
4051;SDS011;2040;50.924;11.604;2022-08-06T01:06:02;8.93;;;2.20;;
4051;SDS011;2040;50.924;11.604;2022-08-06T01:08:28;6.60;;;1.70;;
4051;SDS011;2040;50.924;11.604;2022-08-06T01:10:54;3.70;;;2.23;;
4051;SDS011;2040;50.924;11.604;2022-08-06T01:13:19;3.40;;;1.90;;
4051;SDS011;2040;50.924;11.604;2022-08-06T01:15:47;2.13;;;1.93;;
4051;SDS011;2040;50.924;11.604;2022-08-06T01:18:18;1.73;;;1.60;;
4051;SDS011;2040;50.924;11.604;2022-08-06T01:26:23;1.90;;;1.63;;
4051;SDS011;2040;50.924;11.604;2022-08-06T01:29:04;2.50;;;1.50;;
4051;SDS011;2040;50.924;11.604;2022-08-06T01:31:38;1.40;;;1.30;;
4051;SDS011;2040;50.924;11.604;2022-08-06T01:34:24;3.07;;;1.73;;
4051;SDS011;2040;50.924;11.604;2022-08-06T01:36:55;9.10;;;2.00;;
4051;SDS011;2040;50.924;11.604;2022-08-06T01:39:30;1.90;;;1.70;;
4051;SDS011;2040;50.924;11.604;2022-08-06T01:41:58;5.67;;;2.03;;
4051;SDS011;2040;50.924;11.604;2022-08-06T01:44:28;3.37;;;1.73;;
4051;SDS011;2040;50.924;11.604;2022-08-06T01:46:57;1.73;;;1.33;;
4051;SDS011;2040;50.924;11.604;2022-08-06T01:49:26;1.50;;;1.40;;
4051;SDS011;2040;50.924;11.604;2022-08-06T01:51:55;2.77;;;1.63;;
4051;SDS011;2040;50.924;11.604;2022-08-06T01:54:24;1.33;;;1.23;;
4051;SDS011;2040;50.924;11.604;2022-08-06T01:56:52;2.20;;;1.20;;
4051;SDS011;2040;50.924;11.604;2022-08-06T01:59:21;2.53;;;1.60;;
4051;SDS011;2040;50.924;11.604;2022-08-06T02:01:49;4.33;;;1.60;;
4051;SDS011;2040;50.924;11.604;2022-08-06T02:04:18;2.53;;;1.23;;
4051;SDS011;2040;50.924;11.604;2022-08-06T02:06:48;2.00;;;1.50;;
4051;SDS011;2040;50.924;11.604;2022-08-06T02:09:16;3.13;;;1.80;;
4051;SDS011;2040;50.924;11.604;2022-08-06T02:11:46;1.40;;;1.30;;
4051;SDS011;2040;50.924;11.604;2022-08-06T02:14:15;2.20;;;1.67;;
4051;SDS011;2040;50.924;11.604;2022-08-06T02:16:42;2.80;;;1.40;;
4051;SDS011;2040;50.924;11.604;2022-08-06T02:19:09;2.07;;;1.30;;
4051;SDS011;2040;50.924;11.604;2022-08-06T02:21:38;4.33;;;1.57;;
4051;SDS011;2040;50.924;11.604;2022-08-06T02:24:07;1.93;;;1.67;;
4051;SDS011;2040;50.924;11.604;2022-08-06T02:26:35;2.50;;;1.70;;
4051;SDS011;2040;50.924;11.604;2022-08-06T02:29:04;2.73;;;2.10;;
4051;SDS011;2040;50.924;11.604;2022-08-06T02:31:32;1.50;;;1.30;;
4051;SDS011;2040;50.924;11.604;2022-08-06T02:33:58;1.37;;;1.27;;
4051;SDS011;2040;50.924;11.604;2022-08-06T02:36:28;2.97;;;1.30;;
4051;SDS011;2040;50.924;11.604;2022-08-06T02:39:03;4.17;;;1.70;;
4051;SDS011;2040;50.924;11.604;2022-08-06T02:41:40;1.50;;;1.40;;
4051;SDS011;2040;50.924;11.604;2022-08-06T02:44:15;2.60;;;1.40;;
4051;SDS011;2040;50.924;11.604;2022-08-06T02:46:48;1.53;;;1.40;;
4051;SDS011;2040;50.924;11.604;2022-08-06T02:49:20;2.10;;;1.40;;
4051;SDS011;2040;50.924;11.604;2022-08-06T02:52:08;1.77;;;1.30;;
4051;SDS011;2040;50.924;11.604;2022-08-06T02:54:42;1.50;;;1.10;;
4051;SDS011;2040;50.924;11.604;2022-08-06T02:57:16;3.40;;;1.50;;
4051;SDS011;2040;50.924;11.604;2022-08-06T02:59:47;4.30;;;1.47;;
4051;SDS011;2040;50.924;11.604;2022-08-06T03:02:16;1.87;;;1.30;;
4051;SDS011;2040;50.924;11.604;2022-08-06T03:04:47;1.57;;;1.40;;
4051;SDS011;2040;50.924;11.604;2022-08-06T03:07:14;1.33;;;1.23;;
4051;SDS011;2040;50.924;11.604;2022-08-06T03:09:42;1.53;;;1.43;;
4051;SDS011;2040;50.924;11.604;2022-08-06T03:12:12;3.40;;;1.80;;
4051;SDS011;2040;50.924;11.604;2022-08-06T03:14:40;2.13;;;1.77;;
4051;SDS011;2040;50.924;11.604;2022-08-06T03:17:07;1.87;;;1.23;;
4051;SDS011;2040;50.924;11.604;2022-08-06T03:19:35;5.00;;;1.43;;
4051;SDS011;2040;50.924;11.604;2022-08-06T03:22:03;4.80;;;1.50;;
4051;SDS011;2040;50.924;11.604;2022-08-06T03:24:31;7.30;;;1.60;;
4051;SDS011;2040;50.924;11.604;2022-08-06T03:26:59;2.07;;;1.00;;
4051;SDS011;2040;50.924;11.604;2022-08-06T03:29:26;3.13;;;0.90;;
4051;SDS011;2040;50.924;11.604;2022-08-06T03:31:52;5.33;;;1.53;;
4051;SDS011;2040;50.924;11.604;2022-08-06T03:34:18;1.30;;;1.20;;
4051;SDS011;2040;50.924;11.604;2022-08-06T03:36:44;3.87;;;1.43;;
4051;SDS011;2040;50.924;11.604;2022-08-06T03:39:10;3.67;;;1.33;;
4051;SDS011;2040;50.924;11.604;2022-08-06T03:41:38;1.70;;;1.20;;
4051;SDS011;2040;50.924;11.604;2022-08-06T03:44:04;1.60;;;1.40;;
4051;SDS011;2040;50.924;11.604;2022-08-06T03:46:51;4.90;;;1.30;;
4051;SDS011;2040;50.924;11.604;2022-08-06T03:49:26;3.23;;;1.37;;
4051;SDS011;2040;50.924;11.604;2022-08-06T03:51:56;3.50;;;1.50;;
4051;SDS011;2040;50.924;11.604;2022-08-06T03:54:26;3.93;;;1.83;;
4051;SDS011;2040;50.924;11.604;2022-08-06T03:56:54;1.40;;;1.30;;
4051;SDS011;2040;50.924;11.604;2022-08-06T03:59:24;4.43;;;1.67;;
4051;SDS011;2040;50.924;11.604;2022-08-06T04:01:52;3.00;;;1.70;;
4051;SDS011;2040;50.924;11.604;2022-08-06T04:04:18;2.90;;;1.70;;
4051;SDS011;2040;50.924;11.604;2022-08-06T04:06:45;2.47;;;1.73;;
4051;SDS011;2040;50.924;11.604;2022-08-06T04:09:11;1.60;;;1.47;;
4051;SDS011;2040;50.924;11.604;2022-08-06T04:11:38;2.43;;;1.20;;
4051;SDS011;2040;50.924;11.604;2022-08-06T04:14:04;2.00;;;1.80;;
4051;SDS011;2040;50.924;11.604;2022-08-06T04:16:31;2.27;;;1.27;;
4051;SDS011;2040;50.924;11.604;2022-08-06T04:18:56;1.60;;;1.20;;
4051;SDS011;2040;50.924;11.604;2022-08-06T04:21:24;3.97;;;1.23;;
4051;SDS011;2040;50.924;11.604;2022-08-06T04:23:50;1.40;;;1.27;;
4051;SDS011;2040;50.924;11.604;2022-08-06T04:26:18;2.70;;;1.30;;
4051;SDS011;2040;50.924;11.604;2022-08-06T04:28:48;1.77;;;1.20;;
4051;SDS011;2040;50.924;11.604;2022-08-06T04:31:15;3.07;;;1.47;;
4051;SDS011;2040;50.924;11.604;2022-08-06T04:33:44;1.50;;;1.40;;
4051;SDS011;2040;50.924;11.604;2022-08-06T04:36:10;2.23;;;1.43;;
4051;SDS011;2040;50.924;11.604;2022-08-06T04:38:37;3.40;;;1.50;;
4051;SDS011;2040;50.924;11.604;2022-08-06T04:41:03;2.80;;;1.67;;
4051;SDS011;2040;50.924;11.604;2022-08-06T04:43:30;3.70;;;1.73;;
4051;SDS011;2040;50.924;11.604;2022-08-06T04:45:56;1.83;;;1.40;;
4051;SDS011;2040;50.924;11.604;2022-08-06T04:48:22;1.70;;;1.47;;
4051;SDS011;2040;50.924;11.604;2022-08-06T04:50:49;1.30;;;1.20;;
4051;SDS011;2040;50.924;11.604;2022-08-06T04:53:16;1.80;;;1.30;;
4051;SDS011;2040;50.924;11.604;2022-08-06T04:55:43;2.63;;;1.43;;
4051;SDS011;2040;50.924;11.604;2022-08-06T04:58:11;8.93;;;2.07;;
4051;SDS011;2040;50.924;11.604;2022-08-06T05:00:39;2.40;;;1.30;;
4051;SDS011;2040;50.924;11.604;2022-08-06T05:03:09;5.23;;;1.47;;
4051;SDS011;2040;50.924;11.604;2022-08-06T05:05:43;3.23;;;1.50;;
4051;SDS011;2040;50.924;11.604;2022-08-06T05:08:12;2.30;;;1.60;;
4051;SDS011;2040;50.924;11.604;2022-08-06T05:10:41;1.33;;;1.23;;
4051;SDS011;2040;50.924;11.604;2022-08-06T05:13:13;4.03;;;1.40;;
4051;SDS011;2040;50.924;11.604;2022-08-06T05:15:42;2.03;;;1.73;;
4051;SDS011;2040;50.924;11.604;2022-08-06T05:20:43;3.83;;;1.57;;
4051;SDS011;2040;50.924;11.604;2022-08-06T05:23:21;4.60;;;2.10;;
4051;SDS011;2040;50.924;11.604;2022-08-06T05:25:51;1.53;;;1.13;;
4051;SDS011;2040;50.924;11.604;2022-08-06T05:28:17;1.57;;;1.30;;
4051;SDS011;2040;50.924;11.604;2022-08-06T05:30:44;1.97;;;1.30;;
4051;SDS011;2040;50.924;11.604;2022-08-06T05:33:11;1.50;;;1.40;;
4051;SDS011;2040;50.924;11.604;2022-08-06T05:35:37;2.73;;;1.63;;
4051;SDS011;2040;50.924;11.604;2022-08-06T05:38:02;1.47;;;1.27;;
4051;SDS011;2040;50.924;11.604;2022-08-06T05:40:28;4.70;;;1.60;;
4051;SDS011;2040;50.924;11.604;2022-08-06T05:42:59;8.20;;;1.50;;
4051;SDS011;2040;50.924;11.604;2022-08-06T05:45:24;1.20;;;1.10;;
4051;SDS011;2040;50.924;11.604;2022-08-06T05:47:51;1.53;;;1.40;;
4051;SDS011;2040;50.924;11.604;2022-08-06T05:50:20;1.20;;;1.10;;
4051;SDS011;2040;50.924;11.604;2022-08-06T05:52:58;2.43;;;1.67;;
4051;SDS011;2040;50.924;11.604;2022-08-06T05:58:23;2.83;;;1.50;;
4051;SDS011;2040;50.924;11.604;2022-08-06T06:01:05;1.50;;;1.20;;
4051;SDS011;2040;50.924;11.604;2022-08-06T06:03:32;3.63;;;1.30;;
4051;SDS011;2040;50.924;11.604;2022-08-06T06:06:00;1.40;;;1.30;;
4051;SDS011;2040;50.924;11.604;2022-08-06T06:08:26;2.77;;;1.63;;
4051;SDS011;2040;50.924;11.604;2022-08-06T06:10:52;4.80;;;1.43;;
4051;SDS011;2040;50.924;11.604;2022-08-06T06:13:21;2.40;;;1.20;;
4051;SDS011;2040;50.924;11.604;2022-08-06T06:16:02;2.17;;;1.43;;
4051;SDS011;2040;50.924;11.604;2022-08-06T06:21:42;3.13;;;1.30;;
4051;SDS011;2040;50.924;11.604;2022-08-06T06:26:57;1.80;;;1.30;;
4051;SDS011;2040;50.924;11.604;2022-08-06T06:29:55;1.40;;;1.13;;
4051;SDS011;2040;50.924;11.604;2022-08-06T06:37:46;2.30;;;1.30;;
4051;SDS011;2040;50.924;11.604;2022-08-06T06:45:55;1.07;;;0.97;;
4051;SDS011;2040;50.924;11.604;2022-08-06T06:48:41;1.20;;;1.07;;
4051;SDS011;2040;50.924;11.604;2022-08-06T06:51:13;5.10;;;1.27;;
4051;SDS011;2040;50.924;11.604;2022-08-06T06:53:48;1.40;;;1.20;;
4051;SDS011;2040;50.924;11.604;2022-08-06T06:56:16;4.07;;;1.70;;
4051;SDS011;2040;50.924;11.604;2022-08-06T06:58:48;3.50;;;1.40;;
4051;SDS011;2040;50.924;11.604;2022-08-06T07:01:17;2.00;;;0.93;;
4051;SDS011;2040;50.924;11.604;2022-08-06T07:03:44;0.83;;;0.80;;
4051;SDS011;2040;50.924;11.604;2022-08-06T07:06:12;1.10;;;1.03;;
4051;SDS011;2040;50.924;11.604;2022-08-06T07:08:41;2.23;;;0.90;;
4051;SDS011;2040;50.924;11.604;2022-08-06T07:11:14;3.23;;;0.83;;
4051;SDS011;2040;50.924;11.604;2022-08-06T07:13:43;2.57;;;1.20;;
4051;SDS011;2040;50.924;11.604;2022-08-06T07:16:12;1.00;;;0.90;;
4051;SDS011;2040;50.924;11.604;2022-08-06T07:18:40;0.90;;;0.90;;
4051;SDS011;2040;50.924;11.604;2022-08-06T07:21:07;2.10;;;0.93;;
4051;SDS011;2040;50.924;11.604;2022-08-06T07:23:34;1.10;;;0.80;;
4051;SDS011;2040;50.924;11.604;2022-08-06T07:26:01;1.73;;;0.70;;
4051;SDS011;2040;50.924;11.604;2022-08-06T07:28:27;4.10;;;0.90;;
4051;SDS011;2040;50.924;11.604;2022-08-06T07:30:59;4.00;;;0.73;;
4051;SDS011;2040;50.924;11.604;2022-08-06T07:33:28;0.63;;;0.50;;
4051;SDS011;2040;50.924;11.604;2022-08-06T07:35:54;2.70;;;1.00;;
4051;SDS011;2040;50.924;11.604;2022-08-06T07:38:21;6.63;;;0.90;;
4051;SDS011;2040;50.924;11.604;2022-08-06T07:40:51;3.47;;;0.87;;
4051;SDS011;2040;50.924;11.604;2022-08-06T07:43:27;2.63;;;0.80;;
4051;SDS011;2040;50.924;11.604;2022-08-06T07:45:58;2.53;;;1.00;;
4051;SDS011;2040;50.924;11.604;2022-08-06T07:48:35;3.70;;;1.00;;
4051;SDS011;2040;50.924;11.604;2022-08-06T07:51:04;2.17;;;0.97;;
4051;SDS011;2040;50.924;11.604;2022-08-06T07:53:34;2.40;;;0.70;;
4051;SDS011;2040;50.924;11.604;2022-08-06T07:56:06;2.20;;;0.83;;
4051;SDS011;2040;50.924;11.604;2022-08-06T07:58:33;0.70;;;0.70;;
4051;SDS011;2040;50.924;11.604;2022-08-06T08:01:00;0.80;;;0.70;;
4051;SDS011;2040;50.924;11.604;2022-08-06T08:03:26;1.63;;;0.90;;
4051;SDS011;2040;50.924;11.604;2022-08-06T08:06:11;2.30;;;0.70;;
4051;SDS011;2040;50.924;11.604;2022-08-06T08:08:44;4.10;;;0.90;;
4051;SDS011;2040;50.924;11.604;2022-08-06T08:11:12;0.90;;;0.80;;
4051;SDS011;2040;50.924;11.604;2022-08-06T08:13:39;2.47;;;0.77;;
4051;SDS011;2040;50.924;11.604;2022-08-06T08:16:06;3.90;;;0.60;;
4051;SDS011;2040;50.924;11.604;2022-08-06T08:18:33;1.53;;;0.93;;
4051;SDS011;2040;50.924;11.604;2022-08-06T08:20:59;1.93;;;0.90;;
4051;SDS011;2040;50.924;11.604;2022-08-06T08:23:27;1.20;;;1.07;;
4051;SDS011;2040;50.924;11.604;2022-08-06T08:25:55;0.83;;;0.63;;
4051;SDS011;2040;50.924;11.604;2022-08-06T08:28:24;0.60;;;0.50;;
4051;SDS011;2040;50.924;11.604;2022-08-06T08:30:49;1.27;;;0.80;;
4051;SDS011;2040;50.924;11.604;2022-08-06T08:33:15;2.00;;;0.80;;
4051;SDS011;2040;50.924;11.604;2022-08-06T08:35:45;1.93;;;0.97;;
4051;SDS011;2040;50.924;11.604;2022-08-06T08:38:12;0.80;;;0.60;;
4051;SDS011;2040;50.924;11.604;2022-08-06T08:40:37;1.67;;;0.80;;
4051;SDS011;2040;50.924;11.604;2022-08-06T08:43:04;1.07;;;0.67;;
4051;SDS011;2040;50.924;11.604;2022-08-06T08:45:32;0.80;;;0.80;;
4051;SDS011;2040;50.924;11.604;2022-08-06T08:47:59;1.43;;;0.90;;
4051;SDS011;2040;50.924;11.604;2022-08-06T08:50:30;2.00;;;0.60;;
4051;SDS011;2040;50.924;11.604;2022-08-06T08:53:02;0.70;;;0.60;;
4051;SDS011;2040;50.924;11.604;2022-08-06T08:55:31;2.60;;;0.80;;
4051;SDS011;2040;50.924;11.604;2022-08-06T08:57:57;2.50;;;0.70;;
4051;SDS011;2040;50.924;11.604;2022-08-06T09:00:23;2.93;;;0.70;;
4051;SDS011;2040;50.924;11.604;2022-08-06T09:02:50;0.70;;;0.70;;
4051;SDS011;2040;50.924;11.604;2022-08-06T09:05:15;3.40;;;1.03;;
4051;SDS011;2040;50.924;11.604;2022-08-06T09:07:41;2.03;;;0.70;;
4051;SDS011;2040;50.924;11.604;2022-08-06T09:10:08;8.00;;;0.70;;
4051;SDS011;2040;50.924;11.604;2022-08-06T09:12:34;0.97;;;0.77;;
4051;SDS011;2040;50.924;11.604;2022-08-06T09:15:00;1.60;;;0.77;;
4051;SDS011;2040;50.924;11.604;2022-08-06T09:17:28;1.43;;;0.70;;
4051;SDS011;2040;50.924;11.604;2022-08-06T09:19:54;12.20;;;0.90;;
4051;SDS011;2040;50.924;11.604;2022-08-06T09:22:20;0.83;;;0.67;;
4051;SDS011;2040;50.924;11.604;2022-08-06T09:24:46;1.07;;;0.67;;
4051;SDS011;2040;50.924;11.604;2022-08-06T09:27:16;0.63;;;0.63;;
4051;SDS011;2040;50.924;11.604;2022-08-06T09:29:49;7.90;;;0.73;;
4051;SDS011;2040;50.924;11.604;2022-08-06T09:32:44;1.30;;;0.60;;
4051;SDS011;2040;50.924;11.604;2022-08-06T09:35:26;4.50;;;0.67;;
4051;SDS011;2040;50.924;11.604;2022-08-06T09:38:04;1.90;;;0.70;;
4051;SDS011;2040;50.924;11.604;2022-08-06T09:40:31;1.70;;;0.73;;
4051;SDS011;2040;50.924;11.604;2022-08-06T09:42:56;2.13;;;0.80;;
4051;SDS011;2040;50.924;11.604;2022-08-06T09:45:23;4.10;;;0.70;;
4051;SDS011;2040;50.924;11.604;2022-08-06T09:47:59;1.57;;;0.70;;
4051;SDS011;2040;50.924;11.604;2022-08-06T09:50:37;5.50;;;0.70;;
4051;SDS011;2040;50.924;11.604;2022-08-06T09:53:07;1.23;;;0.53;;
4051;SDS011;2040;50.924;11.604;2022-08-06T09:55:34;1.27;;;0.60;;
4051;SDS011;2040;50.924;11.604;2022-08-06T09:57:59;3.90;;;1.23;;
4051;SDS011;2040;50.924;11.604;2022-08-06T10:00:26;0.70;;;0.60;;
4051;SDS011;2040;50.924;11.604;2022-08-06T10:02:55;3.47;;;0.77;;
4051;SDS011;2040;50.924;11.604;2022-08-06T10:05:25;6.50;;;0.90;;
4051;SDS011;2040;50.924;11.604;2022-08-06T10:08:02;1.43;;;0.60;;
4051;SDS011;2040;50.924;11.604;2022-08-06T10:13:11;1.00;;;0.50;;
4051;SDS011;2040;50.924;11.604;2022-08-06T10:15:38;5.53;;;1.00;;
4051;SDS011;2040;50.924;11.604;2022-08-06T10:18:03;1.63;;;0.60;;
4051;SDS011;2040;50.924;11.604;2022-08-06T10:20:29;4.10;;;0.50;;
4051;SDS011;2040;50.924;11.604;2022-08-06T10:22:55;2.27;;;0.67;;
4051;SDS011;2040;50.924;11.604;2022-08-06T10:25:22;0.60;;;0.50;;
4051;SDS011;2040;50.924;11.604;2022-08-06T10:27:49;0.90;;;0.70;;
4051;SDS011;2040;50.924;11.604;2022-08-06T10:30:18;5.77;;;0.77;;
4051;SDS011;2040;50.924;11.604;2022-08-06T10:32:47;1.87;;;0.93;;
4051;SDS011;2040;50.924;11.604;2022-08-06T10:35:19;4.63;;;0.70;;
4051;SDS011;2040;50.924;11.604;2022-08-06T10:37:51;2.20;;;0.80;;
4051;SDS011;2040;50.924;11.604;2022-08-06T10:40:19;3.50;;;0.70;;
4051;SDS011;2040;50.924;11.604;2022-08-06T10:42:45;1.53;;;0.77;;
4051;SDS011;2040;50.924;11.604;2022-08-06T10:45:12;1.50;;;0.63;;
4051;SDS011;2040;50.924;11.604;2022-08-06T10:47:42;1.77;;;0.50;;
4051;SDS011;2040;50.924;11.604;2022-08-06T10:50:09;1.53;;;0.70;;
4051;SDS011;2040;50.924;11.604;2022-08-06T10:52:37;1.73;;;1.00;;
4051;SDS011;2040;50.924;11.604;2022-08-06T10:55:04;3.50;;;0.93;;
4051;SDS011;2040;50.924;11.604;2022-08-06T10:57:30;0.93;;;0.60;;
4051;SDS011;2040;50.924;11.604;2022-08-06T10:59:57;1.97;;;1.00;;
4051;SDS011;2040;50.924;11.604;2022-08-06T11:02:28;2.13;;;0.70;;
4051;SDS011;2040;50.924;11.604;2022-08-06T11:05:04;1.63;;;0.80;;
4051;SDS011;2040;50.924;11.604;2022-08-06T11:10:56;1.87;;;0.63;;
4051;SDS011;2040;50.924;11.604;2022-08-06T11:13:54;4.10;;;0.57;;
4051;SDS011;2040;50.924;11.604;2022-08-06T11:16:27;2.03;;;0.90;;
4051;SDS011;2040;50.924;11.604;2022-08-06T11:24:09;1.10;;;0.63;;
4051;SDS011;2040;50.924;11.604;2022-08-06T11:26:36;5.17;;;0.90;;
4051;SDS011;2040;50.924;11.604;2022-08-06T11:29:04;0.70;;;0.60;;
4051;SDS011;2040;50.924;11.604;2022-08-06T11:31:35;0.70;;;0.53;;
4051;SDS011;2040;50.924;11.604;2022-08-06T11:34:07;0.60;;;0.60;;
4051;SDS011;2040;50.924;11.604;2022-08-06T11:36:45;2.70;;;0.80;;
4051;SDS011;2040;50.924;11.604;2022-08-06T11:39:23;4.07;;;0.80;;
4051;SDS011;2040;50.924;11.604;2022-08-06T11:41:59;3.60;;;0.80;;
4051;SDS011;2040;50.924;11.604;2022-08-06T11:44:33;3.63;;;1.03;;
4051;SDS011;2040;50.924;11.604;2022-08-06T11:47:12;0.97;;;0.70;;
4051;SDS011;2040;50.924;11.604;2022-08-06T11:49:42;0.70;;;0.50;;
4051;SDS011;2040;50.924;11.604;2022-08-06T11:55:01;1.23;;;0.80;;
4051;SDS011;2040;50.924;11.604;2022-08-06T11:57:30;1.47;;;0.60;;
4051;SDS011;2040;50.924;11.604;2022-08-06T12:05:06;2.60;;;0.70;;
4051;SDS011;2040;50.924;11.604;2022-08-06T12:11:11;0.80;;;0.60;;
4051;SDS011;2040;50.924;11.604;2022-08-06T12:13:44;3.37;;;0.80;;
4051;SDS011;2040;50.924;11.604;2022-08-06T12:16:26;1.90;;;0.60;;
4051;SDS011;2040;50.924;11.604;2022-08-06T12:18:59;4.20;;;0.70;;
4051;SDS011;2040;50.924;11.604;2022-08-06T12:21:26;0.80;;;0.50;;
4051;SDS011;2040;50.924;11.604;2022-08-06T12:23:53;1.00;;;0.63;;
4051;SDS011;2040;50.924;11.604;2022-08-06T12:26:19;4.63;;;0.70;;
4051;SDS011;2040;50.924;11.604;2022-08-06T12:28:46;1.53;;;0.83;;
4051;SDS011;2040;50.924;11.604;2022-08-06T12:31:13;1.60;;;0.70;;
4051;SDS011;2040;50.924;11.604;2022-08-06T12:33:52;2.30;;;0.83;;
4051;SDS011;2040;50.924;11.604;2022-08-06T12:36:18;1.20;;;0.63;;
4051;SDS011;2040;50.924;11.604;2022-08-06T12:38:44;1.53;;;0.60;;
4051;SDS011;2040;50.924;11.604;2022-08-06T12:41:22;0.90;;;0.60;;
4051;SDS011;2040;50.924;11.604;2022-08-06T12:43:47;1.10;;;0.60;;
4051;SDS011;2040;50.924;11.604;2022-08-06T12:46:13;2.20;;;0.63;;
4051;SDS011;2040;50.924;11.604;2022-08-06T12:48:45;0.60;;;0.50;;
4051;SDS011;2040;50.924;11.604;2022-08-06T12:51:13;1.63;;;0.63;;
4051;SDS011;2040;50.924;11.604;2022-08-06T12:53:56;4.47;;;0.80;;
4051;SDS011;2040;50.924;11.604;2022-08-06T12:56:32;0.60;;;0.60;;
4051;SDS011;2040;50.924;11.604;2022-08-06T12:59:01;2.03;;;0.90;;
4051;SDS011;2040;50.924;11.604;2022-08-06T13:01:29;1.57;;;0.67;;
4051;SDS011;2040;50.924;11.604;2022-08-06T13:03:55;0.77;;;0.63;;
4051;SDS011;2040;50.924;11.604;2022-08-06T13:06:25;0.90;;;0.70;;
4051;SDS011;2040;50.924;11.604;2022-08-06T13:08:53;3.03;;;0.60;;
4051;SDS011;2040;50.924;11.604;2022-08-06T13:11:27;0.90;;;0.67;;
4051;SDS011;2040;50.924;11.604;2022-08-06T13:13:57;1.53;;;0.90;;
4051;SDS011;2040;50.924;11.604;2022-08-06T13:16:27;2.10;;;0.60;;
4051;SDS011;2040;50.924;11.604;2022-08-06T13:19:12;3.43;;;0.70;;
4051;SDS011;2040;50.924;11.604;2022-08-06T13:21:40;0.80;;;0.60;;
4051;SDS011;2040;50.924;11.604;2022-08-06T13:24:07;2.50;;;0.77;;
4051;SDS011;2040;50.924;11.604;2022-08-06T13:26:34;0.97;;;0.73;;
4051;SDS011;2040;50.924;11.604;2022-08-06T13:29:17;1.10;;;0.70;;
4051;SDS011;2040;50.924;11.604;2022-08-06T13:31:44;0.83;;;0.60;;
4051;SDS011;2040;50.924;11.604;2022-08-06T13:34:12;1.40;;;0.77;;
4051;SDS011;2040;50.924;11.604;2022-08-06T13:36:41;1.50;;;0.67;;
4051;SDS011;2040;50.924;11.604;2022-08-06T13:39:18;1.20;;;0.60;;
4051;SDS011;2040;50.924;11.604;2022-08-06T13:44:32;1.10;;;0.63;;
4051;SDS011;2040;50.924;11.604;2022-08-06T13:47:00;1.10;;;0.50;;
4051;SDS011;2040;50.924;11.604;2022-08-06T13:49:26;0.77;;;0.60;;
4051;SDS011;2040;50.924;11.604;2022-08-06T13:51:52;0.80;;;0.60;;
4051;SDS011;2040;50.924;11.604;2022-08-06T13:54:18;0.83;;;0.60;;
4051;SDS011;2040;50.924;11.604;2022-08-06T13:56:45;2.87;;;0.70;;
4051;SDS011;2040;50.924;11.604;2022-08-06T13:59:12;0.97;;;0.50;;
4051;SDS011;2040;50.924;11.604;2022-08-06T14:01:37;1.80;;;0.70;;
4051;SDS011;2040;50.924;11.604;2022-08-06T14:04:03;0.63;;;0.63;;
4051;SDS011;2040;50.924;11.604;2022-08-06T14:06:29;2.83;;;0.60;;
4051;SDS011;2040;50.924;11.604;2022-08-06T14:08:55;1.57;;;0.67;;
4051;SDS011;2040;50.924;11.604;2022-08-06T14:11:21;1.10;;;0.50;;
4051;SDS011;2040;50.924;11.604;2022-08-06T14:13:46;0.63;;;0.60;;
4051;SDS011;2040;50.924;11.604;2022-08-06T14:16:12;2.53;;;0.60;;
4051;SDS011;2040;50.924;11.604;2022-08-06T14:18:38;3.10;;;0.60;;
4051;SDS011;2040;50.924;11.604;2022-08-06T14:21:04;0.70;;;0.70;;
4051;SDS011;2040;50.924;11.604;2022-08-06T14:23:30;2.00;;;0.60;;
4051;SDS011;2040;50.924;11.604;2022-08-06T14:25:55;3.47;;;0.80;;
4051;SDS011;2040;50.924;11.604;2022-08-06T14:28:21;0.67;;;0.60;;
4051;SDS011;2040;50.924;11.604;2022-08-06T14:30:47;0.60;;;0.40;;
4051;SDS011;2040;50.924;11.604;2022-08-06T14:33:12;0.97;;;0.50;;
4051;SDS011;2040;50.924;11.604;2022-08-06T14:35:38;0.70;;;0.60;;
4051;SDS011;2040;50.924;11.604;2022-08-06T14:38:04;1.43;;;0.90;;
4051;SDS011;2040;50.924;11.604;2022-08-06T14:40:31;4.70;;;0.57;;
4051;SDS011;2040;50.924;11.604;2022-08-06T14:43:15;0.63;;;0.53;;
4051;SDS011;2040;50.924;11.604;2022-08-06T14:45:59;1.10;;;0.60;;
4051;SDS011;2040;50.924;11.604;2022-08-06T14:48:25;0.73;;;0.50;;
4051;SDS011;2040;50.924;11.604;2022-08-06T14:50:51;2.40;;;0.90;;
4051;SDS011;2040;50.924;11.604;2022-08-06T14:53:17;1.93;;;0.60;;
4051;SDS011;2040;50.924;11.604;2022-08-06T14:55:42;1.57;;;0.80;;
4051;SDS011;2040;50.924;11.604;2022-08-06T14:58:08;1.93;;;0.60;;
4051;SDS011;2040;50.924;11.604;2022-08-06T15:00:33;0.60;;;0.50;;
4051;SDS011;2040;50.924;11.604;2022-08-06T15:02:59;3.20;;;0.90;;
4051;SDS011;2040;50.924;11.604;2022-08-06T15:05:24;0.60;;;0.57;;
4051;SDS011;2040;50.924;11.604;2022-08-06T15:07:50;2.10;;;0.70;;
4051;SDS011;2040;50.924;11.604;2022-08-06T15:10:16;2.80;;;0.53;;
4051;SDS011;2040;50.924;11.604;2022-08-06T15:12:41;1.57;;;0.80;;
4051;SDS011;2040;50.924;11.604;2022-08-06T15:15:07;5.43;;;0.60;;
4051;SDS011;2040;50.924;11.604;2022-08-06T15:17:33;1.83;;;0.60;;
4051;SDS011;2040;50.924;11.604;2022-08-06T15:19:59;2.97;;;1.20;;
4051;SDS011;2040;50.924;11.604;2022-08-06T15:22:24;0.80;;;0.60;;
4051;SDS011;2040;50.924;11.604;2022-08-06T15:24:50;0.97;;;0.57;;
4051;SDS011;2040;50.924;11.604;2022-08-06T15:27:15;3.17;;;0.60;;
4051;SDS011;2040;50.924;11.604;2022-08-06T15:29:48;1.17;;;0.80;;
4051;SDS011;2040;50.924;11.604;2022-08-06T15:32:14;0.83;;;0.57;;
4051;SDS011;2040;50.924;11.604;2022-08-06T15:34:40;0.80;;;0.73;;
4051;SDS011;2040;50.924;11.604;2022-08-06T15:37:06;1.97;;;1.00;;
4051;SDS011;2040;50.924;11.604;2022-08-06T15:39:32;1.30;;;0.63;;
4051;SDS011;2040;50.924;11.604;2022-08-06T15:41:58;1.03;;;0.60;;
4051;SDS011;2040;50.924;11.604;2022-08-06T15:44:24;3.20;;;0.90;;
4051;SDS011;2040;50.924;11.604;2022-08-06T15:46:49;1.90;;;0.60;;
4051;SDS011;2040;50.924;11.604;2022-08-06T15:49:15;1.20;;;0.67;;
4051;SDS011;2040;50.924;11.604;2022-08-06T15:51:41;2.90;;;1.00;;
4051;SDS011;2040;50.924;11.604;2022-08-06T15:54:06;3.40;;;0.70;;
4051;SDS011;2040;50.924;11.604;2022-08-06T15:56:32;0.90;;;0.80;;
4051;SDS011;2040;50.924;11.604;2022-08-06T15:58:57;3.27;;;0.67;;
4051;SDS011;2040;50.924;11.604;2022-08-06T16:01:23;2.40;;;0.97;;
4051;SDS011;2040;50.924;11.604;2022-08-06T16:03:49;4.50;;;0.93;;
4051;SDS011;2040;50.924;11.604;2022-08-06T16:06:14;4.30;;;0.63;;